Time;durP1;ratioP1;P1;durP2;ratioP2;P2;SDS_P1;SDS_P2;PMS_P1;PMS_P2;Temp;Humidity;BMP_temperature;BMP_pressure;BME280_temperature;BME280_humidity;BME280_pressure;Samples;Min_cycle;Max_cycle;Signal;HPM_P1;HPM_P2
2023/05/17 00:01:28;;;;;;;;;;;;;;;-142.75;100.00;78078.44;4985975;28;19921;-62
2023/05/17 00:03:55;;;;;;;;;;;;;;;-142.75;100.00;78070.56;5001057;28;19913;-63
2023/05/17 00:06:20;;;;;;;;;;;;;;;-142.75;100.00;78058.72;4987805;28;19914;-63
2023/05/17 00:08:45;;;;;;;;;;;;;;;-142.75;100.00;78062.69;4987306;28;19924;-63
2023/05/17 00:11:11;;;;;;;;;;;;;;;-142.75;100.00;78042.97;4987246;28;20402;-62
2023/05/17 00:13:37;;;;;;;;;;;;;;;-142.75;100.00;78058.72;4986591;28;19913;-58
2023/05/17 00:16:02;;;;;;;;;;;;;;;-142.75;100.00;78035.09;4986804;28;19917;-63
2023/05/17 00:18:27;;;;;;;;;;;;;;;-142.75;100.00;78035.09;4985185;28;20024;-68
2023/05/17 00:20:52;;;;;;;;;;;;;;;-142.75;100.00;78041.00;4987285;28;19980;-62
2023/05/17 00:23:18;;;;;;;;;;;;;;;-142.75;100.00;78021.31;4986600;28;19968;-64
2023/05/17 00:25:43;;;;;;;;;;;;;;;-142.75;100.00;78019.34;4986947;28;20386;-62
2023/05/17 00:28:08;;;;;;;;;;;;;;;-142.75;100.00;78023.28;4986403;28;20385;-64
2023/05/17 00:30:34;;;;;;;;;;;;;;;-142.75;100.00;78035.09;4984392;28;19918;-63
2023/05/17 00:32:59;;;;;;;;;;;;;;;-142.75;100.00;78027.22;4986437;28;19913;-59
2023/05/17 00:35:24;;;;;;;;;;;;;;;-142.75;100.00;78033.13;4987248;28;19913;-63
2023/05/17 00:37:50;;;;;;;;;;;;;;;-142.75;100.00;78027.22;4987027;28;19972;-63
2023/05/17 00:40:15;;;;;;;;;;;;;;;-142.75;100.00;78023.28;4986847;28;20453;-61
2023/05/17 00:42:41;;;;;;;;;;;;;;;-142.75;100.00;78025.25;4986651;28;19921;-63
2023/05/17 00:45:06;;;;;;;;;;;;;;;-142.75;100.00;78023.28;4984287;28;19925;-63
2023/05/17 00:47:31;;;;;;;;;;;;;;;-142.75;100.00;78037.06;4986732;28;19914;-63
2023/05/17 00:49:57;;;;;;;;;;;;;;;-142.75;100.00;78037.06;4986816;28;19928;-61
2023/05/17 00:52:22;;;;;;;;;;;;;;;-142.75;100.00;78023.28;4984759;28;19914;-61
2023/05/17 00:54:49;;;;;;;;;;;;;;;-142.75;100.00;78027.22;4986536;28;19913;-62
2023/05/17 00:57:15;;;;;;;;;;;;;;;-142.75;100.00;78035.09;4986410;28;19918;-66
2023/05/17 00:59:41;;;;;;;;;;;;;;;-142.75;100.00;78042.97;4984993;28;19913;-66
2023/05/17 01:02:06;;;;;;;;;;;;;;;-142.75;100.00;78054.81;4986323;28;20059;-63
2023/05/17 01:04:31;;;;;;;;;;;;;;;-142.75;100.00;78039.03;4984720;28;20008;-63
2023/05/17 01:06:57;;;;;;;;;;;;;;;-142.75;100.00;78027.22;4986721;28;20383;-64
2023/05/17 01:09:22;;;;;;;;;;;;;;;-142.75;100.00;78037.06;4974479;28;19918;-63
2023/05/17 01:11:57;;;;;;;;;;;;;;;-142.75;100.00;78023.28;4986132;28;20000;-64
2023/05/17 01:14:36;;;;;;;;;;;;;;;-142.75;100.00;78025.25;4982006;28;19913;-63
2023/05/17 01:17:04;;;;;;;;;;;;;;;-142.75;100.00;78039.03;4986222;28;19914;-63
2023/05/17 01:19:41;;;;;;;;;;;;;;;-142.75;100.00;78033.13;4984289;28;19922;-63
2023/05/17 01:22:16;;;;;;;;;;;;;;;-142.75;100.00;78029.19;4986244;28;19917;-62
2023/05/17 01:24:49;;;;;;;;;;;;;;;-142.75;100.00;78044.94;4998854;28;19914;-65
2023/05/17 01:27:15;;;;;;;;;;;;;;;-142.75;100.00;78037.06;4985392;28;19914;-63
2023/05/17 01:29:41;;;;;;;;;;;;;;;-142.75;100.00;78013.44;4986040;28;20604;-63
2023/05/17 01:32:07;;;;;;;;;;;;;;;-142.75;100.00;78019.34;4982758;28;20616;-62
2023/05/17 01:34:33;;;;;;;;;;;;;;;-142.75;100.00;78029.19;4985872;28;19920;-64
2023/05/17 01:36:59;;;;;;;;;;;;;;;-142.75;100.00;78023.28;4986582;28;19928;-63
2023/05/17 01:39:25;;;;;;;;;;;;;;;-142.75;100.00;78025.25;4986174;28;19921;-63
2023/05/17 01:42:06;;;;;;;;;;;;;;;-142.75;100.00;78023.28;4986171;28;19944;-63
2023/05/17 01:44:31;;;;;;;;;;;;;;;-142.75;100.00;78013.44;4985649;28;19971;-63
2023/05/17 01:47:04;;;;;;;;;;;;;;;-142.75;100.00;78019.34;4985886;28;19945;-62
2023/05/17 01:49:31;;;;;;;;;;;;;;;-142.75;100.00;78019.34;4985880;28;20029;-64
2023/05/17 01:51:56;;;;;;;;;;;;;;;-142.75;100.00;78013.44;4986025;28;19921;-62
2023/05/17 01:54:26;;;;;;;;;;;;;;;-142.75;100.00;78015.41;4986046;28;19929;-62
2023/05/17 01:56:56;;;;;;;;;;;;;;;-142.75;100.00;78007.53;4986096;28;19914;-62
2023/05/17 01:59:23;;;;;;;;;;;;;;;-142.75;100.00;78001.63;4980916;28;19924;-60
2023/05/17 02:01:50;;;;;;;;;;;;;;;-142.75;100.00;78015.41;4986021;28;19913;-61
2023/05/17 02:04:15;;;;;;;;;;;;;;;-142.75;100.00;78007.53;4985435;28;20407;-62
2023/05/17 02:06:40;;;;;;;;;;;;;;;-142.75;100.00;78017.38;4985985;28;19968;-63
2023/05/17 02:09:06;;;;;;;;;;;;;;;-142.75;100.00;78007.53;4982007;28;19922;-62
2023/05/17 02:11:31;;;;;;;;;;;;;;;-142.75;100.00;78021.31;4985266;28;20347;-62
2023/05/17 02:13:57;;;;;;;;;;;;;;;-142.75;100.00;78023.28;4978156;28;20390;-56
2023/05/17 02:16:22;;;;;;;;;;;;;;;-142.75;100.00;78019.34;4985429;28;19914;-62
2023/05/17 02:18:48;;;;;;;;;;;;;;;-142.75;100.00;78023.28;4985652;28;19918;-62
2023/05/17 02:21:13;;;;;;;;;;;;;;;-142.75;100.00;78037.06;4985404;28;20414;-63
2023/05/17 02:23:38;;;;;;;;;;;;;;;-142.75;100.00;78039.03;4985302;28;19952;-64
2023/05/17 02:26:03;;;;;;;;;;;;;;;-142.75;100.00;78031.16;4985510;28;19914;-62
2023/05/17 02:28:28;;;;;;;;;;;;;;;-142.75;100.00;78031.16;4985754;28;19914;-63
2023/05/17 02:30:55;;;;;;;;;;;;;;;-142.75;100.00;78035.09;4986153;28;19921;-63
2023/05/17 02:33:20;;;;;;;;;;;;;;;-142.75;100.00;78029.19;4983272;28;19913;-63
2023/05/17 02:35:47;;;;;;;;;;;;;;;-142.75;100.00;78027.22;4986142;28;19918;-62
2023/05/17 02:38:12;;;;;;;;;;;;;;;-142.75;100.00;78027.22;4985935;28;19926;-65
2023/05/17 02:40:39;;;;;;;;;;;;;;;-142.75;100.00;78023.28;4987107;28;19920;-63
2023/05/17 02:43:05;;;;;;;;;;;;;;;-142.75;100.00;78031.16;4985659;28;19914;-63
2023/05/17 02:45:30;;;;;;;;;;;;;;;-142.75;100.00;78031.16;4988815;28;21782;-63
2023/05/17 02:47:55;;;;;;;;;;;;;;;-142.75;100.00;78033.13;4988726;28;19918;-60
2023/05/17 02:50:21;;;;;;;;;;;;;;;-142.75;100.00;78023.28;4988979;28;19914;-62
2023/05/17 02:52:46;;;;;;;;;;;;;;;-142.75;100.00;78019.34;4988817;28;19914;-64
2023/05/17 02:55:11;;;;;;;;;;;;;;;-142.75;100.00;78019.34;4988739;28;19913;-60
2023/05/17 02:57:36;;;;;;;;;;;;;;;-142.75;100.00;78021.31;4988239;28;20594;-59
2023/05/17 03:00:02;;;;;;;;;;;;;;;-142.75;100.00;78003.59;4988800;28;20000;-64
2023/05/17 03:02:27;;;;;;;;;;;;;;;-142.75;100.00;78015.41;4988687;28;19914;-62
2023/05/17 03:04:52;;;;;;;;;;;;;;;-142.75;100.00;78019.34;4988963;28;20446;-55
2023/05/17 03:07:18;;;;;;;;;;;;;;;-142.75;100.00;78019.34;4988913;28;19963;-62
2023/05/17 03:09:43;;;;;;;;;;;;;;;-142.75;100.00;78015.41;4986178;28;19914;-64
2023/05/17 03:12:08;;;;;;;;;;;;;;;-142.75;100.00;78027.22;4988492;28;19914;-63
2023/05/17 03:14:33;;;;;;;;;;;;;;;-142.75;100.00;78023.28;4988247;28;19984;-62
2023/05/17 03:16:59;;;;;;;;;;;;;;;-142.75;100.00;78021.31;4988142;28;19918;-63
2023/05/17 03:19:24;;;;;;;;;;;;;;;-142.75;100.00;78027.22;4988409;28;19921;-63
2023/05/17 03:21:49;;;;;;;;;;;;;;;-142.75;100.00;78033.13;4988372;28;19936;-63
2023/05/17 03:24:15;;;;;;;;;;;;;;;-142.75;100.00;78023.28;4988178;28;20398;-63
2023/05/17 03:26:40;;;;;;;;;;;;;;;-142.75;100.00;78023.28;4987687;28;19914;-59
2023/05/17 03:29:05;;;;;;;;;;;;;;;-142.75;100.00;78031.16;4988051;28;20295;-63
2023/05/17 03:31:30;;;;;;;;;;;;;;;-142.75;100.00;78023.28;4988084;28;20032;-63
2023/05/17 03:33:56;;;;;;;;;;;;;;;-142.75;100.00;78015.41;4988200;28;20268;-60
2023/05/17 03:36:21;;;;;;;;;;;;;;;-142.75;100.00;78023.28;4988533;28;20383;-60
2023/05/17 03:38:46;;;;;;;;;;;;;;;-142.75;100.00;78025.25;4988147;28;19918;-63
2023/05/17 03:41:12;;;;;;;;;;;;;;;-142.75;100.00;78025.25;4987965;28;19914;-64
2023/05/17 03:43:37;;;;;;;;;;;;;;;-142.75;100.00;78035.09;4987779;28;20456;-62
2023/05/17 03:46:02;;;;;;;;;;;;;;;-142.75;100.00;78037.06;4987439;28;19984;-64
2023/05/17 03:48:27;;;;;;;;;;;;;;;-142.75;100.00;78035.09;4987635;28;19913;-63
2023/05/17 03:50:53;;;;;;;;;;;;;;;-142.75;100.00;78029.19;4987516;28;20008;-62
2023/05/17 03:53:18;;;;;;;;;;;;;;;-142.75;100.00;78025.25;4986493;28;20315;-63
2023/05/17 03:55:43;;;;;;;;;;;;;;;-142.75;100.00;78027.22;4987188;28;20427;-61
2023/05/17 03:58:08;;;;;;;;;;;;;;;-142.75;100.00;78023.28;4984020;28;19922;-63
2023/05/17 04:00:33;;;;;;;;;;;;;;;-142.75;100.00;78023.28;4987404;28;19917;-63
2023/05/17 04:02:59;;;;;;;;;;;;;;;-142.75;100.00;78031.16;4987394;28;19913;-62
2023/05/17 04:05:25;;;;;;;;;;;;;;;-142.75;100.00;78031.16;4987521;28;20310;-63
2023/05/17 04:07:50;;;;;;;;;;;;;;;-142.75;100.00;78031.16;4988341;28;19914;-59
2023/05/17 04:10:15;;;;;;;;;;;;;;;-142.75;100.00;78009.50;4987498;28;19924;-65
2023/05/17 04:12:41;;;;;;;;;;;;;;;-142.75;100.00;78015.41;4985153;28;19918;-64
2023/05/17 04:15:06;;;;;;;;;;;;;;;-142.75;100.00;78021.31;4987198;28;19917;-64
2023/05/17 04:17:32;;;;;;;;;;;;;;;-142.75;100.00;78027.22;4986756;28;19924;-62
2023/05/17 04:19:57;;;;;;;;;;;;;;;-142.75;100.00;78039.03;4987293;28;19913;-64
2023/05/17 04:22:22;;;;;;;;;;;;;;;-142.75;100.00;78025.25;4987218;28;19959;-63
2023/05/17 04:24:47;;;;;;;;;;;;;;;-142.75;100.00;78023.28;4987129;28;20004;-56
2023/05/17 04:27:13;;;;;;;;;;;;;;;-142.75;100.00;78046.91;4997913;28;20015;-62
2023/05/17 04:29:39;;;;;;;;;;;;;;;-142.75;100.00;78056.78;4987033;28;20000;-62
2023/05/17 04:32:05;;;;;;;;;;;;;;;-142.75;100.00;78050.84;4987237;28;22049;-62
2023/05/17 04:34:30;;;;;;;;;;;;;;;-142.75;100.00;78041.00;4986804;28;19992;-62
2023/05/17 04:36:56;;;;;;;;;;;;;;;-142.75;100.00;78039.03;4987647;28;19940;-62
2023/05/17 04:39:21;;;;;;;;;;;;;;;-142.75;100.00;78052.81;4987063;28;20017;-63
2023/05/17 04:41:46;;;;;;;;;;;;;;;-142.75;100.00;78050.84;4986690;28;19959;-58
2023/05/17 04:44:11;;;;;;;;;;;;;;;-142.75;100.00;78046.91;4986941;28;20379;-64
2023/05/17 04:46:37;;;;;;;;;;;;;;;-142.75;100.00;78054.81;4986481;28;19917;-62
2023/05/17 04:49:02;;;;;;;;;;;;;;;-142.75;100.00;78042.97;4986800;28;20383;-63
2023/05/17 04:51:28;;;;;;;;;;;;;;;-142.75;100.00;78050.84;4986409;28;19984;-64
2023/05/17 04:53:53;;;;;;;;;;;;;;;-142.75;100.00;78052.81;4986737;28;19924;-62
2023/05/17 04:56:18;;;;;;;;;;;;;;;-142.75;100.00;78050.84;4986190;28;19914;-61
2023/05/17 04:58:44;;;;;;;;;;;;;;;-142.75;100.00;78050.84;4986125;28;19925;-63
2023/05/17 05:01:09;;;;;;;;;;;;;;;-142.75;100.00;78054.81;4986311;28;19965;-63
2023/05/17 05:03:35;;;;;;;;;;;;;;;-142.75;100.00;78054.81;4982100;28;19983;-62
2023/05/17 05:06:00;;;;;;;;;;;;;;;-142.75;100.00;78068.59;4985435;28;20276;-62
2023/05/17 05:08:27;;;;;;;;;;;;;;;-142.75;100.00;78068.59;4987184;28;19929;-62
2023/05/17 05:10:52;;;;;;;;;;;;;;;-142.75;100.00;78066.63;4976242;28;20059;-63
2023/05/17 05:13:17;;;;;;;;;;;;;;;-142.75;100.00;78058.72;4986925;28;20209;-63
2023/05/17 05:15:42;;;;;;;;;;;;;;;-142.75;100.00;78078.44;4984348;28;20355;-62
2023/05/17 05:18:07;;;;;;;;;;;;;;;-142.75;100.00;78052.81;4986425;28;19925;-60
2023/05/17 05:20:33;;;;;;;;;;;;;;;-142.75;100.00;78033.13;4985540;28;20067;-62
2023/05/17 05:22:59;;;;;;;;;;;;;;;-142.75;100.00;78035.09;4986625;28;19913;-64
2023/05/17 05:25:25;;;;;;;;;;;;;;;-142.75;100.00;78066.63;4984580;28;20377;-62
2023/05/17 05:27:50;;;;;;;;;;;;;;;-142.75;100.00;78039.03;4986372;28;19920;-63
2023/05/17 05:30:20;;;;;;;;;;;;;;;-142.75;100.00;78025.25;4986081;28;19917;-62
2023/05/17 05:32:46;;;;;;;;;;;;;;;-142.75;100.00;78027.22;4986094;28;19928;-63
2023/05/17 05:35:11;;;;;;;;;;;;;;;-142.75;100.00;78019.34;4985926;28;19914;-60
2023/05/17 05:37:36;;;;;;;;;;;;;;;-142.75;100.00;78039.03;4986792;28;19918;-62
2023/05/17 05:40:02;;;;;;;;;;;;;;;-142.75;100.00;78023.28;4986086;28;19918;-63
2023/05/17 05:42:28;;;;;;;;;;;;;;;-142.75;100.00;78019.34;4985867;28;19920;-62
2023/05/17 05:44:53;;;;;;;;;;;;;;;-142.75;100.00;78037.06;4986152;28;19917;-64
2023/05/17 05:47:18;;;;;;;;;;;;;;;-142.75;100.00;78019.34;4982598;28;20004;-65
2023/05/17 05:49:44;;;;;;;;;;;;;;;-142.75;100.00;78031.16;4982103;28;19936;-64
2023/05/17 05:52:09;;;;;;;;;;;;;;;-142.75;100.00;78017.38;4986191;28;20398;-63
2023/05/17 05:54:35;;;;;;;;;;;;;;;-142.75;100.00;78007.53;4985606;28;20062;-62
2023/05/17 05:57:00;;;;;;;;;;;;;;;-142.75;100.00;77989.81;4985750;28;19913;-64
2023/05/17 05:59:26;;;;;;;;;;;;;;;-142.75;100.00;77978.00;4985713;28;20416;-65
2023/05/17 06:01:51;;;;;;;;;;;;;;;-142.75;100.00;77968.16;4985878;28;20474;-63
2023/05/17 06:04:16;;;;;;;;;;;;;;;-142.75;100.00;77968.16;4985698;28;19913;-64
2023/05/17 06:06:41;;;;;;;;;;;;;;;-142.75;100.00;77960.28;4986276;28;20008;-63
2023/05/17 06:09:10;;;;;;;;;;;;;;;-142.75;100.00;77958.31;4985546;28;19914;-66
2023/05/17 06:11:36;;;;;;;;;;;;;;;-142.75;100.00;77976.03;4984773;28;19913;-64
2023/05/17 06:14:01;;;;;;;;;;;;;;;-142.75;100.00;77974.06;4985620;28;19921;-63
2023/05/17 06:16:26;;;;;;;;;;;;;;;-142.75;100.00;77976.03;4988338;28;19945;-61
2023/05/17 06:18:51;;;;;;;;;;;;;;;-142.75;100.00;77944.53;4989806;28;20000;-64
2023/05/17 06:21:17;;;;;;;;;;;;;;;-142.75;100.00;77956.34;4989565;28;20542;-65
2023/05/17 06:23:42;;;;;;;;;;;;;;;-142.75;100.00;77934.69;4989301;28;19913;-63
2023/05/17 06:26:09;;;;;;;;;;;;;;;-142.75;100.00;77920.91;4986374;28;19918;-62
2023/05/17 06:28:34;;;;;;;;;;;;;;;-142.75;100.00;77915.00;4987981;28;19937;-63
2023/05/17 06:31:00;;;;;;;;;;;;;;;-142.75;100.00;77924.84;4989504;28;20367;-64
2023/05/17 06:33:25;;;;;;;;;;;;;;;-142.75;100.00;77885.44;4989154;28;19932;-64
2023/05/17 06:35:50;;;;;;;;;;;;;;;-142.75;100.00;77881.50;4986213;28;19913;-64
2023/05/17 06:38:15;;;;;;;;;;;;;;;-142.75;100.00;77855.91;4989393;28;19968;-63
2023/05/17 06:40:41;;;;;;;;;;;;;;;-142.75;100.00;77826.38;4984598;28;19957;-63
2023/05/17 06:43:06;;;;;;;;;;;;;;;-142.75;100.00;77818.50;4988867;28;19920;-64
2023/05/17 06:45:31;;;;;;;;;;;;;;;-142.75;100.00;77796.84;4988668;28;19996;-64
2023/05/17 06:47:56;;;;;;;;;;;;;;;-142.75;100.00;77771.25;4988584;28;19936;-63
2023/05/17 06:50:21;;;;;;;;;;;;;;;-142.75;100.00;77812.59;4988559;28;20375;-63
2023/05/17 06:52:47;;;;;;;;;;;;;;;-142.75;100.00;77806.69;4987794;28;20473;-62
2023/05/17 06:55:12;;;;;;;;;;;;;;;-142.75;100.00;77796.84;4987621;28;19914;-60
2023/05/17 06:57:37;;;;;;;;;;;;;;;-142.75;100.00;77779.13;4987676;28;19917;-65
2023/05/17 07:00:05;;;;;;;;;;;;;;;-142.75;100.00;77802.75;4988257;28;19928;-64
2023/05/17 07:02:31;;;;;;;;;;;;;;;-142.75;98.98;77804.72;4987875;28;19914;-62
2023/05/17 07:04:56;;;;;;;;;;;;;;;-142.75;94.85;77824.41;4988608;28;19917;-64
2023/05/17 07:07:22;;;;;;;;;;;;;;;-142.75;91.32;77814.56;4984272;28;19932;-63
2023/05/17 07:09:47;;;;;;;;;;;;;;;-142.75;92.62;77794.88;4987301;28;20000;-63
2023/05/17 07:12:12;;;;;;;;;;;;;;;-142.75;90.04;77850.00;4987211;28;19956;-63
2023/05/17 07:14:37;;;;;;;;;;;;;;;-142.75;89.70;77836.22;4987432;28;19913;-62
2023/05/17 07:17:03;;;;;;;;;;;;;;;-142.75;89.93;77792.91;4987489;28;19913;-63
2023/05/17 07:19:28;;;;;;;;;;;;;;;-142.75;89.57;77781.09;4987531;28;19925;-63
2023/05/17 07:21:53;;;;;;;;;;;;;;;-142.75;89.69;77785.03;4987604;28;19960;-61
2023/05/17 07:24:18;;;;;;;;;;;;;;;-142.75;89.58;77759.44;4986231;28;19920;-62
2023/05/17 07:26:44;;;;;;;;;;;;;;;-142.75;93.91;77704.28;4985605;28;19992;-61
2023/05/17 07:29:10;;;;;;;;;;;;;;;-142.75;92.74;77700.34;4982201;28;20575;-64
2023/05/17 07:31:35;;;;;;;;;;;;;;;-142.75;91.17;77680.66;4986665;28;19913;-63
2023/05/17 07:34:01;;;;;;;;;;;;;;;-142.75;88.94;77666.88;4989159;28;20039;-62
2023/05/17 07:36:29;;;;;;;;;;;;;;;-142.75;89.55;77649.16;4985944;28;20413;-62
2023/05/17 07:38:54;;;;;;;;;;;;;;;-142.75;90.14;77635.38;4984223;28;20383;-62
2023/05/17 07:41:22;;;;;;;;;;;;;;;-142.75;89.96;77639.31;4987001;28;19937;-63
2023/05/17 07:43:47;;;;;;;;;;;;;;;-142.75;85.17;77627.50;4985047;28;19914;-63
2023/05/17 07:46:12;;;;;;;;;;;;;;;-142.75;86.70;77596.00;4987067;28;19921;-62
2023/05/17 07:48:37;;;;;;;;;;;;;;;-142.75;87.25;77588.13;4988049;28;19924;-62
2023/05/17 07:51:03;;;;;;;;;;;;;;;-142.75;84.16;77574.34;4982471;28;19913;-64
2023/05/17 07:53:28;;;;;;;;;;;;;;;-142.75;84.08;77558.59;4984550;28;19914;-63
2023/05/17 07:55:53;;;;;;;;;;;;;;;-142.75;85.32;77523.16;4987678;28;19914;-63
2023/05/17 07:58:18;;;;;;;;;;;;;;;-142.75;85.22;77544.81;4987188;28;19918;-63
2023/05/17 08:00:43;;;;;;;;;;;;;;;-142.75;86.62;77554.66;4987712;28;19914;-63
2023/05/17 08:03:08;;;;;;;;;;;;;;;-142.75;81.58;77544.81;4985230;28;19921;-65
2023/05/17 08:05:34;;;;;;;;;;;;;;;-142.75;81.77;77531.03;4987535;28;19996;-62
2023/05/17 08:08:00;;;;;;;;;;;;;;;-142.75;81.96;77552.69;4991137;28;19996;-63
2023/05/17 08:10:25;;;;;;;;;;;;;;;-142.75;81.41;77566.47;4987451;28;20005;-63
2023/05/17 08:12:51;;;;;;;;;;;;;;;-142.75;80.44;77538.91;5000144;28;19971;-59
2023/05/17 08:15:16;;;;;;;;;;;;;;;-142.75;81.42;77521.19;4985478;28;19918;-63
2023/05/17 08:17:41;;;;;;;;;;;;;;;-142.75;81.38;77499.53;4982870;28;19921;-62
2023/05/17 08:20:07;;;;;;;;;;;;;;;-142.75;81.90;77487.72;4985245;28;20450;-63
2023/05/17 08:22:32;;;;;;;;;;;;;;;-142.75;80.23;77497.56;4983770;28;20366;-66
2023/05/17 08:24:57;;;;;;;;;;;;;;;-142.75;76.49;77491.66;4986035;28;19920;-65
2023/05/17 08:27:24;;;;;;;;;;;;;;;-142.75;75.57;77503.47;4986531;28;20467;-60
2023/05/17 08:29:50;;;;;;;;;;;;;;;-142.75;74.66;77552.69;4986573;28;19921;-63
2023/05/17 08:32:15;;;;;;;;;;;;;;;-142.75;74.23;77523.16;4986605;28;20290;-62
2023/05/17 08:34:41;;;;;;;;;;;;;;;-142.75;74.60;77503.47;4985564;28;19914;-61
2023/05/17 08:37:06;;;;;;;;;;;;;;;-142.75;71.93;77475.91;4987128;28;19917;-62
2023/05/17 08:39:32;;;;;;;;;;;;;;;-142.75;73.86;77487.72;4986133;28;19941;-62
2023/05/17 08:41:58;;;;;;;;;;;;;;;-142.75;73.87;77503.47;4986125;28;20009;-64
2023/05/17 08:44:24;;;;;;;;;;;;;;;-142.75;75.42;77509.38;4986214;28;20563;-62
2023/05/17 08:46:52;;;;;;;;;;;;;;;-142.75;74.59;77519.22;4985356;28;19983;-60
2023/05/17 08:49:20;;;;;;;;;;;;;;;-142.75;74.66;77470.00;4985060;28;19914;-60
2023/05/17 08:51:48;;;;;;;;;;;;;;;-142.75;75.73;77499.53;4984119;28;19922;-61
2023/05/17 08:54:14;;;;;;;;;;;;;;;-142.75;74.58;77497.56;4986251;28;19914;-62
2023/05/17 08:56:41;;;;;;;;;;;;;;;-142.75;76.92;77432.56;4985268;28;19921;-61
2023/05/17 08:59:08;;;;;;;;;;;;;;;-142.75;76.35;77406.97;4986241;28;20505;-64
2023/05/17 09:01:33;;;;;;;;;;;;;;;-142.75;75.35;77448.34;4986203;28;19914;-64
2023/05/17 09:03:59;;;;;;;;;;;;;;;-142.75;74.11;77422.72;4985873;28;19948;-64
2023/05/17 09:06:25;;;;;;;;;;;;;;;-142.75;76.07;77365.63;4985928;28;19924;-64
2023/05/17 09:08:53;;;;;;;;;;;;;;;-142.75;73.95;77349.88;4986691;28;20310;-62
2023/05/17 09:11:26;;;;;;;;;;;;;;;-142.75;74.64;77371.53;4985355;28;19956;-62
2023/05/17 09:13:51;;;;;;;;;;;;;;;-142.75;71.10;77361.69;4985241;28;19929;-63
2023/05/17 09:16:20;;;;;;;;;;;;;;;-142.75;71.25;77377.44;4985389;28;19960;-63
2023/05/17 09:18:52;;;;;;;;;;;;;;;-142.75;73.59;77338.06;4985636;28;20022;-66
2023/05/17 09:21:17;;;;;;;;;;;;;;;-142.75;71.25;77387.28;4985972;28;19969;-61
2023/05/17 09:23:45;;;;;;;;;;;;;;;-142.75;69.87;77377.44;4980794;28;19949;-64
2023/05/17 09:26:12;;;;;;;;;;;;;;;-142.75;70.70;77338.06;4981162;28;19932;-63
2023/05/17 09:28:38;;;;;;;;;;;;;;;-142.75;72.56;77306.56;4984897;28;19918;-63
2023/05/17 09:31:07;;;;;;;;;;;;;;;-142.75;73.73;77302.63;4984637;28;19948;-62
2023/05/17 09:33:32;;;;;;;;;;;;;;;-142.75;69.57;77300.66;4983776;28;19914;-63
2023/05/17 09:35:59;;;;;;;;;;;;;;;-142.75;70.31;77316.41;4975846;28;20626;-63
2023/05/17 09:38:26;;;;;;;;;;;;;;;-142.75;69.47;77320.34;4985302;28;19921;-64
2023/05/17 09:40:51;;;;;;;;;;;;;;;-142.75;70.83;77286.88;4986142;28;19928;-65
2023/05/17 09:43:21;;;;;;;;;;;;;;;-142.75;72.18;77277.03;4985247;28;19914;-64
2023/05/17 09:45:53;;;;;;;;;;;;;;;-142.75;68.66;77263.25;4985524;28;20299;-63
2023/05/17 09:48:21;;;;;;;;;;;;;;;-142.75;66.87;77290.81;4975936;28;19913;-64
2023/05/17 09:50:49;;;;;;;;;;;;;;;-142.75;69.02;77284.91;4989001;28;19920;-64
2023/05/17 09:53:27;;;;;;;;;;;;;;;-142.75;66.37;77286.88;4988790;28;19914;-64
2023/05/17 09:55:53;;;;;;;;;;;;;;;-142.75;68.81;77275.06;4979083;28;19924;-62
2023/05/17 09:58:20;;;;;;;;;;;;;;;-142.75;67.14;77286.88;4989912;28;19921;-59
2023/05/17 10:00:48;;;;;;;;;;;;;;;-142.75;68.31;77286.88;4989601;28;19947;-62
2023/05/17 10:03:13;;;;;;;;;;;;;;;-142.75;68.46;77231.75;4989112;28;20497;-62
2023/05/17 10:05:42;;;;;;;;;;;;;;;-142.75;70.18;77212.06;4989118;28;19957;-62
2023/05/17 10:08:08;;;;;;;;;;;;;;;-142.75;70.11;77216.00;4987585;28;20361;-62
2023/05/17 10:10:33;;;;;;;;;;;;;;;-142.75;68.65;77210.09;4994330;28;19953;-62
2023/05/17 10:12:59;;;;;;;;;;;;;;;-142.75;68.88;77216.00;4988787;28;19922;-63
2023/05/17 10:15:25;;;;;;;;;;;;;;;-142.75;70.03;77231.75;5002033;28;19964;-67
2023/05/17 10:17:50;;;;;;;;;;;;;;;-142.75;70.47;77247.50;4981422;28;19942;-63
2023/05/17 10:20:16;;;;;;;;;;;;;;;-142.75;72.98;77249.47;4987173;28;20582;-64
2023/05/17 10:22:41;;;;;;;;;;;;;;;-142.75;71.22;77192.38;4986345;28;19960;-62
2023/05/17 10:25:07;;;;;;;;;;;;;;;-142.75;71.24;77208.13;4986727;28;19946;-61
2023/05/17 10:27:33;;;;;;;;;;;;;;;-142.75;67.84;77212.06;4974467;28;19921;-63
2023/05/17 10:29:59;;;;;;;;;;;;;;;-142.75;69.04;77204.19;4987699;28;20404;-63
2023/05/17 10:32:26;;;;;;;;;;;;;;;-142.75;69.78;77202.22;4987080;28;19913;-63
2023/05/17 10:34:52;;;;;;;;;;;;;;;-142.75;70.68;77196.31;4991059;28;19913;-64
2023/05/17 10:37:18;;;;;;;;;;;;;;;-142.75;68.20;77210.09;4979054;28;20302;-65
2023/05/17 10:39:45;;;;;;;;;;;;;;;-142.75;68.31;77223.88;4987217;28;19941;-63
2023/05/17 10:42:12;;;;;;;;;;;;;;;-142.75;68.26;77202.22;4988332;28;19956;-62
2023/05/17 10:44:37;;;;;;;;;;;;;;;-142.75;68.87;77204.19;4988355;28;19960;-63
2023/05/17 10:47:03;;;;;;;;;;;;;;;-142.75;67.85;77198.28;4988210;28;19913;-60
2023/05/17 10:49:30;;;;;;;;;;;;;;;-142.75;67.29;77223.88;4988459;28;19920;-61
2023/05/17 10:51:56;;;;;;;;;;;;;;;-142.75;67.97;77212.06;4988080;28;20385;-63
2023/05/17 10:54:32;;;;;;;;;;;;;;;-142.75;69.09;77208.13;4983001;28;19913;-64
2023/05/17 10:57:00;;;;;;;;;;;;;;;-142.75;69.48;77200.25;4986964;28;20362;-65
2023/05/17 10:59:28;;;;;;;;;;;;;;;-142.75;70.65;77143.16;4988259;28;19926;-65
2023/05/17 11:01:53;;;;;;;;;;;;;;;-142.75;65.71;77141.19;4984124;28;20487;-63
2023/05/17 11:04:25;;;;;;;;;;;;;;;-142.75;65.66;77139.22;4987837;28;20015;-62
2023/05/17 11:06:51;;;;;;;;;;;;;;;-142.75;65.79;77115.59;4979133;28;19961;-62
2023/05/17 11:09:20;;;;;;;;;;;;;;;-142.75;67.37;77154.97;4988346;28;19980;-64
2023/05/17 11:12:05;;;;;;;;;;;;;;;-142.75;68.34;77133.31;4987791;28;20000;-64
2023/05/17 11:14:56;;;;;;;;;;;;;;;-142.75;63.51;77156.94;4987637;28;20015;-66
2023/05/17 11:17:26;;;;;;;;;;;;;;;-142.75;64.33;77196.31;4985026;28;19914;-63
2023/05/17 11:19:51;;;;;;;;;;;;;;;-142.75;63.19;77168.75;4987959;28;19914;-63
2023/05/17 11:22:17;;;;;;;;;;;;;;;-142.75;62.99;77149.06;4988038;28;19914;-65
2023/05/17 11:24:43;;;;;;;;;;;;;;;-142.75;65.65;77127.41;4987989;28;19921;-64
2023/05/17 11:27:08;;;;;;;;;;;;;;;-142.75;64.41;77101.81;4986879;28;19914;-63
2023/05/17 11:29:38;;;;;;;;;;;;;;;-142.75;65.42;77125.44;4988267;28;19965;-64
2023/05/17 11:32:09;;;;;;;;;;;;;;;-142.75;66.78;77131.34;4987817;28;20374;-65
2023/05/17 11:34:34;;;;;;;;;;;;;;;-142.75;65.97;77119.53;4987960;28;20394;-66
2023/05/17 11:36:59;;;;;;;;;;;;;;;-142.75;63.31;77097.88;4988026;28;19921;-63
2023/05/17 11:39:25;;;;;;;;;;;;;;;-142.75;63.42;77093.94;4988656;28;19924;-63
2023/05/17 11:41:54;;;;;;;;;;;;;;;-142.75;62.33;77056.53;4987809;28;19921;-60
2023/05/17 11:44:26;;;;;;;;;;;;;;;-142.75;65.90;77042.75;4987061;28;19914;-63
2023/05/17 11:46:52;;;;;;;;;;;;;;;-142.75;61.40;77040.78;4978557;28;20375;-62
2023/05/17 11:49:18;;;;;;;;;;;;;;;-142.75;59.81;77042.75;4987577;28;19973;-64
2023/05/17 11:51:44;;;;;;;;;;;;;;;-142.75;62.88;77090.00;4987273;28;20779;-63
2023/05/17 11:54:10;;;;;;;;;;;;;;;-142.75;64.75;77141.19;4986366;28;19919;-63
2023/05/17 11:56:35;;;;;;;;;;;;;;;-142.75;64.29;77123.47;4987187;28;19922;-62
2023/05/17 11:59:01;;;;;;;;;;;;;;;-142.75;64.72;77176.63;4984045;28;20950;-63
2023/05/17 12:01:26;;;;;;;;;;;;;;;-142.75;69.45;77121.50;4983595;28;19922;-63
2023/05/17 12:03:56;;;;;;;;;;;;;;;-142.75;66.31;77160.88;4985790;28;19913;-62
2023/05/17 12:06:23;;;;;;;;;;;;;;;-142.75;66.17;77137.25;4985445;28;19928;-62
2023/05/17 12:08:48;;;;;;;;;;;;;;;-142.75;64.35;77151.03;4985812;28;19918;-63
2023/05/17 12:11:14;;;;;;;;;;;;;;;-142.75;67.56;77105.75;4984148;28;19960;-63
2023/05/17 12:13:42;;;;;;;;;;;;;;;-142.75;67.38;77131.34;4977782;28;19910;-60
2023/05/17 12:16:10;;;;;;;;;;;;;;;-142.75;67.75;77107.72;4976653;28;19967;-64